createdAt,value
2019-05-09T00:02:35.749Z,101023.52
2019-05-09T00:05:03.681Z,101022.20
2019-05-09T00:07:30.909Z,101024.34
2019-05-09T00:09:57.999Z,101023.44
2019-05-09T00:12:25.163Z,101018.59
2019-05-09T00:14:53.998Z,101018.59
2019-05-09T00:17:23.215Z,101026.52
2019-05-09T00:19:50.191Z,101022.11
2019-05-09T00:22:17.555Z,101012.92
2019-05-09T00:24:44.858Z,101012.47
2019-05-09T00:27:14.147Z,101020.80
2019-05-09T00:29:44.661Z,101016.42
2019-05-09T00:32:23.888Z,101011.14
2019-05-09T00:34:57.702Z,101013.33
2019-05-09T00:37:47.134Z,101012.87
2019-05-09T00:40:14.412Z,101017.29
2019-05-09T00:42:43.815Z,101015.95
2019-05-09T00:45:18.047Z,101014.65
2019-05-09T00:47:45.125Z,101018.14
2019-05-09T00:50:13.213Z,101017.73
2019-05-09T00:52:40.371Z,101021.23
2019-05-09T00:55:07.471Z,101015.97
2019-05-09T00:57:34.550Z,101015.15
2019-05-09T01:00:05.635Z,101010.33
2019-05-09T01:02:34.034Z,101012.11
2019-05-09T01:05:01.199Z,101009.94
2019-05-09T01:07:28.285Z,101009.08
2019-05-09T01:09:55.358Z,101013.48
2019-05-09T01:12:23.508Z,101021.81
2019-05-09T01:14:50.742Z,101027.61
2019-05-09T01:17:17.807Z,101026.34
2019-05-09T01:19:44.990Z,101031.62
2019-05-09T01:22:13.233Z,101028.56
2019-05-09T01:24:40.353Z,101026.38
2019-05-09T01:27:07.420Z,101022.42
2019-05-09T01:29:34.489Z,101020.25
2019-05-09T01:32:03.699Z,101029.02
2019-05-09T01:34:33.139Z,101020.25
2019-05-09T01:37:04.634Z,101024.66
2019-05-09T01:39:33.649Z,101017.56
2019-05-09T01:42:03.271Z,101018.88
2019-05-09T01:44:30.569Z,101024.16
2019-05-09T01:46:57.660Z,101022.38
2019-05-09T01:49:24.727Z,101020.25
2019-05-09T01:51:53.669Z,101018.92
2019-05-09T01:54:23.719Z,101014.11
2019-05-09T01:56:51.031Z,101008.88
2019-05-09T01:59:18.120Z,101004.11
2019-05-09T02:01:45.205Z,101000.16
2019-05-09T02:04:13.718Z,101003.20
2019-05-09T02:06:40.975Z,100999.70
2019-05-09T02:09:08.055Z,100989.15
2019-05-09T02:11:42.434Z,100991.33
2019-05-09T02:14:05.216Z,100990.86
2019-05-09T02:16:53.739Z,100992.69
2019-05-09T02:19:28.263Z,100994.77
2019-05-09T02:21:55.336Z,100988.53
2019-05-09T02:24:23.429Z,100988.92
2019-05-09T02:26:53.357Z,100989.33
2019-05-09T02:29:20.623Z,100993.63
2019-05-09T02:31:47.694Z,100991.39
2019-05-09T02:34:15.323Z,100990.95
2019-05-09T02:36:42.453Z,100989.11
2019-05-09T02:39:09.621Z,100992.59
2019-05-09T02:41:39.091Z,100992.09
2019-05-09T02:44:09.057Z,100985.48
2019-05-09T02:46:43.597Z,100990.25
2019-05-09T02:49:10.667Z,100987.14
2019-05-09T02:51:38.687Z,100991.00
2019-05-09T02:54:09.555Z,100991.45
2019-05-09T02:56:35.119Z,100987.84
2019-05-09T02:59:30.915Z,100986.06
2019-05-09T03:02:09.620Z,100988.17
2019-05-09T03:04:39.110Z,100989.89
2019-05-09T03:07:09.439Z,100990.70
2019-05-09T03:09:34.940Z,100989.38
2019-05-09T03:12:21.435Z,100995.02
2019-05-09T03:14:31.011Z,100987.08
2019-05-09T03:16:58.908Z,100989.72
2019-05-09T03:19:29.422Z,100980.88
2019-05-09T03:21:58.938Z,100989.66
2019-05-09T03:24:28.652Z,100989.20
2019-05-09T03:26:59.857Z,100984.73
2019-05-09T03:29:43.121Z,100987.35
2019-05-09T03:32:11.297Z,100988.22
2019-05-09T03:34:38.367Z,100985.97
2019-05-09T03:37:05.443Z,100985.92
2019-05-09T03:39:32.570Z,100980.57
2019-05-09T03:41:59.664Z,100982.23
2019-05-09T03:44:28.299Z,100980.45
2019-05-09T03:47:14.808Z,100972.03
2019-05-09T03:49:41.984Z,100972.11
2019-05-09T03:52:09.083Z,100974.22
2019-05-09T03:54:37.518Z,100978.48
2019-05-09T03:57:24.336Z,100975.84
2019-05-09T03:59:51.433Z,100977.09
2019-05-09T04:02:18.506Z,100973.97
2019-05-09T04:04:47.533Z,100980.06
2019-05-09T04:07:14.566Z,100973.85
2019-05-09T04:09:41.660Z,100972.46
2019-05-09T04:12:08.761Z,100980.72
2019-05-09T04:14:37.574Z,100978.00
2019-05-09T04:17:04.835Z,100971.66
2019-05-09T04:19:31.908Z,100972.93
2019-05-09T04:22:02.090Z,100971.61
2019-05-09T04:24:29.171Z,100971.03
2019-05-09T04:27:29.838Z,100968.79
2019-05-09T04:29:57.489Z,100963.42
2019-05-09T04:32:24.674Z,100964.22
2019-05-09T04:34:51.734Z,100959.37
2019-05-09T04:37:18.811Z,100958.83
2019-05-09T04:39:47.612Z,100958.25
2019-05-09T04:42:14.927Z,100954.98
2019-05-09T04:44:57.318Z,100957.94
2019-05-09T04:47:20.599Z,100953.89
2019-05-09T04:49:48.065Z,100951.17
2019-05-09T04:52:15.171Z,100954.92
2019-05-09T04:54:42.256Z,100950.88
2019-05-09T04:57:09.338Z,100938.89
2019-05-09T04:59:37.358Z,100948.09
2019-05-09T05:02:22.826Z,100943.64
2019-05-09T05:04:49.920Z,100942.56
2019-05-09T05:07:18.044Z,100938.08
2019-05-09T05:09:45.406Z,100934.95
2019-05-09T05:12:12.486Z,100940.16
2019-05-09T05:14:39.585Z,100936.50
2019-05-09T05:17:11.339Z,100941.31
2019-05-09T05:19:38.321Z,100936.88
2019-05-09T05:22:20.146Z,100928.80
2019-05-09T05:24:55.680Z,100938.90
2019-05-09T05:27:22.272Z,100932.22
2019-05-09T05:29:49.402Z,100937.43
2019-05-09T05:32:39.023Z,100940.86
2019-05-09T05:35:25.708Z,100936.42
2019-05-09T05:37:53.994Z,100944.28
2019-05-09T05:40:21.111Z,100940.16
2019-05-09T05:42:48.227Z,100945.37
2019-05-09T05:45:15.341Z,100937.34
2019-05-09T05:47:49.835Z,100935.93
2019-05-09T05:50:17.692Z,100939.41
2019-05-09T05:52:44.963Z,100948.54
2019-05-09T05:55:12.247Z,100933.82
2019-05-09T05:57:39.348Z,100939.86
2019-05-09T06:00:07.849Z,100935.27
2019-05-09T06:02:35.200Z,100945.78
2019-05-09T06:05:02.491Z,100941.34
2019-05-09T06:07:30.704Z,100938.05
2019-05-09T06:09:57.786Z,100942.70
2019-05-09T06:12:24.872Z,100939.84
2019-05-09T06:14:51.987Z,100939.75
2019-05-09T06:17:19.181Z,100940.52
2019-05-09T06:19:48.213Z,100938.20
2019-05-09T06:22:15.230Z,100945.13
2019-05-09T06:24:43.313Z,100945.09
2019-05-09T06:27:10.726Z,100944.55
2019-05-09T06:29:38.728Z,100940.27
2019-05-09T06:32:07.826Z,100946.42
2019-05-09T06:34:41.653Z,100941.89
2019-05-09T06:37:05.120Z,100943.58
2019-05-09T06:39:32.199Z,100936.86
2019-05-09T06:41:59.299Z,100948.27
2019-05-09T06:44:37.332Z,100943.17
2019-05-09T06:47:27.799Z,100942.14
2019-05-09T06:49:57.431Z,100946.78
2019-05-09T06:52:24.615Z,100944.96
2019-05-09T06:54:51.761Z,100943.07
2019-05-09T06:57:18.940Z,100941.75
2019-05-09T06:59:48.777Z,100941.58
2019-05-09T07:02:38.870Z,100948.47
2019-05-09T07:05:14.474Z,100948.34
2019-05-09T07:08:08.116Z,100940.81
2019-05-09T07:10:37.637Z,100939.88
2019-05-09T07:13:04.324Z,100938.09
2019-05-09T07:15:31.412Z,100943.66
2019-05-09T07:17:58.468Z,100941.30
2019-05-09T07:20:25.538Z,100938.94
2019-05-09T07:22:54.279Z,100937.05
2019-05-09T07:25:40.943Z,100935.97
2019-05-09T07:28:10.848Z,100938.98
2019-05-09T07:31:03.640Z,100936.62
2019-05-09T07:33:44.411Z,100940.43
2019-05-09T07:36:11.493Z,100946.96
2019-05-09T07:38:38.707Z,100937.16
2019-05-09T07:41:06.402Z,100932.64
2019-05-09T07:43:34.731Z,100945.13
2019-05-09T07:46:21.388Z,100932.25
2019-05-09T07:48:48.588Z,100936.92
2019-05-09T07:51:17.957Z,100935.48
2019-05-09T07:53:44.642Z,100935.34
2019-05-09T07:56:11.731Z,100935.55
2019-05-09T07:58:38.821Z,100935.52
2019-05-09T08:01:08.190Z,100932.09
2019-05-09T08:03:34.884Z,100935.50
2019-05-09T08:06:01.988Z,100931.37
2019-05-09T08:08:29.111Z,100931.58
2019-05-09T08:10:58.448Z,100935.92
2019-05-09T08:13:25.156Z,100934.08
2019-05-09T08:15:52.233Z,100931.28
2019-05-09T08:18:19.311Z,100925.34
2019-05-09T08:20:47.953Z,100925.97
2019-05-09T08:23:15.183Z,100923.67
2019-05-09T08:25:42.249Z,100927.94
2019-05-09T08:28:09.454Z,100926.48
2019-05-09T08:30:40.127Z,100918.79
2019-05-09T08:33:07.938Z,100917.46
2019-05-09T08:35:34.494Z,100921.75
2019-05-09T08:38:01.595Z,100920.42
2019-05-09T08:40:28.757Z,100907.98
2019-05-09T08:42:55.834Z,100910.80
2019-05-09T08:45:27.780Z,100906.88
2019-05-09T08:47:51.868Z,100900.80
2019-05-09T08:50:28.207Z,100903.01
2019-05-09T08:52:57.668Z,100893.74
2019-05-09T08:55:24.904Z,100901.81
2019-05-09T08:57:53.774Z,100891.09
2019-05-09T09:00:20.832Z,100904.96
2019-05-09T09:02:48.321Z,100899.04
2019-05-09T09:05:15.501Z,100898.18
2019-05-09T09:07:44.480Z,100895.58
2019-05-09T09:10:11.854Z,100896.05
2019-05-09T09:12:38.926Z,100895.66
2019-05-09T09:15:07.726Z,100898.58
2019-05-09T09:17:38.588Z,100902.78
2019-05-09T09:20:07.716Z,100906.95
2019-05-09T09:22:37.388Z,100899.56
2019-05-09T09:25:04.185Z,100901.37
2019-05-09T09:27:31.907Z,100898.57
2019-05-09T09:30:15.530Z,100898.05
2019-05-09T09:32:28.207Z,100891.98
2019-05-09T09:34:55.361Z,100893.36
2019-05-09T09:37:22.419Z,100888.29
2019-05-09T09:39:49.492Z,100889.13
2019-05-09T09:42:19.981Z,100882.48
2019-05-09T09:44:47.933Z,100878.48
2019-05-09T09:47:20.622Z,100876.12
2019-05-09T09:49:43.524Z,100872.09
2019-05-09T09:52:10.703Z,100871.77
2019-05-09T09:54:38.628Z,100867.72
2019-05-09T09:57:06.159Z,100867.09
2019-05-09T09:59:58.215Z,100869.18
2019-05-09T10:02:28.878Z,100860.02
2019-05-09T10:04:55.943Z,100862.45
2019-05-09T10:07:23.009Z,100861.02
2019-05-09T10:09:50.083Z,100866.53
2019-05-09T10:12:18.191Z,100864.75
2019-05-09T10:14:51.264Z,100864.67
2019-05-09T10:17:38.515Z,100863.41
2019-05-09T10:20:18.277Z,100868.52
2019-05-09T10:22:55.340Z,100863.33
2019-05-09T10:25:18.125Z,100852.38
2019-05-09T10:27:47.866Z,100856.28
2019-05-09T10:30:14.407Z,100861.23
2019-05-09T10:32:41.492Z,100858.39
2019-05-09T10:35:12.543Z,100856.34
2019-05-09T10:37:39.634Z,100858.95
2019-05-09T10:40:06.699Z,100854.24
2019-05-09T10:42:48.402Z,100850.95
2019-05-09T10:45:39.930Z,100852.70
2019-05-09T10:48:08.348Z,100842.48
2019-05-09T10:50:43.030Z,100845.47
2019-05-09T10:53:07.831Z,100848.05
2019-05-09T10:55:38.245Z,100843.19
2019-05-09T10:58:08.137Z,100847.63
2019-05-09T11:00:39.245Z,100843.63
2019-05-09T11:03:08.752Z,100831.87
2019-05-09T11:05:37.900Z,100835.66
2019-05-09T11:08:04.981Z,100832.08
2019-05-09T11:10:32.999Z,100838.83
2019-05-09T11:13:00.292Z,100837.41
2019-05-09T11:15:27.356Z,100838.05
2019-05-09T11:17:54.551Z,100824.80
2019-05-09T11:20:21.620Z,100828.49
2019-05-09T11:22:48.717Z,100825.33
2019-05-09T11:25:15.823Z,100833.25
2019-05-09T11:27:42.910Z,100833.25
2019-05-09T11:30:09.967Z,100824.72
2019-05-09T11:32:38.602Z,100831.07
2019-05-09T11:35:08.755Z,100828.00
2019-05-09T11:37:35.275Z,100833.75
2019-05-09T11:40:02.620Z,100825.75
2019-05-09T11:42:29.683Z,100825.81
2019-05-09T11:44:58.039Z,100836.78
2019-05-09T11:47:34.338Z,100824.09
2019-05-09T11:49:54.212Z,100829.83
2019-05-09T11:52:21.278Z,100822.58
2019-05-09T11:54:48.414Z,100822.59
2019-05-09T11:57:15.519Z,100831.84
2019-05-09T11:59:42.582Z,100825.38
2019-05-09T12:02:09.647Z,100825.38
2019-05-09T12:04:38.100Z,100824.58
2019-05-09T12:07:07.742Z,100813.42
2019-05-09T12:09:34.370Z,100823.56
2019-05-09T12:12:01.436Z,100817.44
2019-05-09T12:14:28.520Z,100809.58
2019-05-09T12:16:55.583Z,100797.94
2019-05-09T12:19:22.666Z,100801.88
2019-05-09T12:21:49.777Z,100802.25
2019-05-09T12:24:18.368Z,100794.67
2019-05-09T12:26:48.173Z,100799.54
2019-05-09T12:29:14.692Z,100803.27
2019-05-09T12:31:41.758Z,100800.59
2019-05-09T12:34:09.395Z,100802.53
2019-05-09T12:36:39.803Z,100800.66
2019-05-09T12:39:08.810Z,100806.69
2019-05-09T12:41:38.238Z,100798.20
2019-05-09T12:44:04.522Z,100805.62
2019-05-09T12:46:31.611Z,100791.05
2019-05-09T12:48:59.327Z,100794.72
2019-05-09T12:51:28.116Z,100788.92
2019-05-09T12:53:57.858Z,100775.65
2019-05-09T12:56:25.244Z,100780.73
2019-05-09T12:58:52.383Z,100784.53
2019-05-09T13:01:19.427Z,100785.22
2019-05-09T13:03:48.407Z,100782.20
2019-05-09T13:06:19.572Z,100786.72
2019-05-09T13:08:44.541Z,100778.14
2019-05-09T13:11:11.652Z,100773.75
2019-05-09T13:13:40.771Z,100769.33
2019-05-09T13:16:44.011Z,100785.80
2019-05-09T13:19:04.368Z,100768.36
2019-05-09T13:21:32.739Z,100776.95
2019-05-09T13:24:00.331Z,100768.39
2019-05-09T13:26:28.860Z,100766.72
2019-05-09T13:28:58.638Z,100772.81
2019-05-09T13:31:29.088Z,100773.38
2019-05-09T13:33:58.306Z,100778.53
2019-05-09T13:36:25.047Z,100779.08
2019-05-09T13:38:58.043Z,100779.89
2019-05-09T13:41:22.830Z,100793.26
2019-05-09T13:43:57.772Z,100777.11
2019-05-09T13:46:19.256Z,100773.31
2019-05-09T13:49:05.882Z,100771.55
2019-05-09T13:55:08.701Z,100777.82
2019-05-09T13:57:38.357Z,100775.48
2019-05-09T14:00:08.211Z,100771.33
2019-05-09T14:03:40.786Z,100772.00
2019-05-09T14:06:08.939Z,100775.97
2019-05-09T14:19:26.109Z,100785.80
2019-05-09T14:21:34.253Z,100793.16
2019-05-09T14:24:11.416Z,100771.89
2019-05-09T14:26:30.351Z,100767.28
2019-05-09T14:28:58.233Z,100747.81
2019-05-09T14:31:29.852Z,100760.28
2019-05-09T14:33:54.491Z,100761.63
2019-05-09T14:36:21.577Z,100753.62
2019-05-09T14:40:48.547Z,100753.08
2019-05-09T14:41:41.939Z,100757.06
2019-05-09T14:44:09.523Z,100754.80
2019-05-09T14:46:39.237Z,100757.17
2019-05-09T14:49:07.967Z,100750.66
2019-05-09T14:51:34.754Z,100758.11
2019-05-09T14:54:01.857Z,100764.05
2019-05-09T14:56:28.994Z,100758.34
2019-05-09T14:58:58.019Z,100764.62
2019-05-09T15:01:28.431Z,100757.69
2019-05-09T15:03:54.404Z,100756.07
2019-05-09T15:06:21.523Z,100735.50
2019-05-09T15:08:48.634Z,100754.58
2019-05-09T15:11:17.922Z,100752.55
2019-05-09T15:13:47.074Z,100746.09
2019-05-09T15:16:18.244Z,100744.30
2019-05-09T15:18:44.587Z,100743.36
2019-05-09T15:21:14.516Z,100746.33
2019-05-09T15:23:41.591Z,100753.00
2019-05-09T15:26:08.664Z,100740.20
2019-05-09T15:28:35.739Z,100739.02
2019-05-09T15:31:02.831Z,100734.50
2019-05-09T15:33:29.907Z,100733.14
2019-05-09T15:35:58.891Z,100740.73
2019-05-09T15:38:28.767Z,100734.22
2019-05-09T15:40:56.164Z,100735.94
2019-05-09T15:43:23.437Z,100735.62
2019-05-09T15:45:58.170Z,100733.10
2019-05-09T15:48:27.438Z,100745.97
2019-05-09T15:50:54.389Z,100727.77
2019-05-09T15:53:21.473Z,100739.22
2019-05-09T15:55:48.548Z,100733.75
2019-05-09T15:58:18.132Z,100727.19
2019-05-09T16:00:44.648Z,100712.23
2019-05-09T16:03:11.726Z,100716.72
2019-05-09T16:05:38.899Z,100736.52
2019-05-09T16:08:09.045Z,100712.58
2019-05-09T16:10:37.260Z,100722.30
2019-05-09T16:13:04.045Z,100716.58
2019-05-09T16:15:31.099Z,100709.38
2019-05-09T16:17:58.210Z,100709.26
2019-05-09T16:20:36.847Z,100706.89
2019-05-09T16:22:57.148Z,100707.89
2019-05-09T16:25:23.237Z,100706.12
2019-05-09T16:27:50.312Z,100701.04
2019-05-09T16:30:17.671Z,100700.31
2019-05-09T16:32:44.760Z,100701.66
2019-05-09T16:35:12.646Z,100699.52
2019-05-09T16:37:56.889Z,100695.56
2019-05-09T16:40:09.068Z,100694.40
2019-05-09T16:42:38.177Z,100694.52
2019-05-09T16:45:07.893Z,100694.23
2019-05-09T16:47:36.625Z,100696.98
2019-05-09T16:50:04.748Z,100693.80
2019-05-09T16:52:31.908Z,100685.61
2019-05-09T16:55:08.224Z,100680.58
2019-05-09T16:57:37.572Z,100695.55
2019-05-09T17:00:07.910Z,100686.95
2019-05-09T17:02:35.038Z,100679.75
2019-05-09T17:05:02.340Z,100687.80
2019-05-09T17:07:29.414Z,100676.23
2019-05-09T17:09:57.761Z,100684.92
2019-05-09T17:12:25.021Z,100689.33
2019-05-09T17:14:52.098Z,100690.12
2019-05-09T17:17:20.372Z,100674.81
2019-05-09T17:19:48.117Z,100688.58
2019-05-09T17:22:35.616Z,100688.27
2019-05-09T17:25:05.344Z,100686.23
2019-05-09T17:27:32.418Z,100679.66
2019-05-09T17:29:59.519Z,100687.12
2019-05-09T17:32:28.496Z,100685.88
2019-05-09T17:34:58.163Z,100672.20
2019-05-09T17:37:24.835Z,100678.81
2019-05-09T17:39:51.904Z,100683.35
2019-05-09T17:42:18.971Z,100683.38
2019-05-09T17:44:48.594Z,100681.55
2019-05-09T17:47:17.366Z,100686.42
2019-05-09T17:49:44.055Z,100684.59
2019-05-09T17:52:11.139Z,100682.31
2019-05-09T17:54:38.241Z,100690.70
2019-05-09T17:57:07.841Z,100680.42
2019-05-09T17:59:34.608Z,100683.59
2019-05-09T18:02:01.683Z,100676.03
2019-05-09T18:04:29.078Z,100677.33
2019-05-09T18:06:58.396Z,100680.36
2019-05-09T18:09:25.239Z,100683.45
2019-05-09T18:11:52.313Z,100680.53
2019-05-09T18:14:19.398Z,100680.62
2019-05-09T18:16:47.793Z,100678.93
2019-05-09T18:19:15.079Z,100679.48
2019-05-09T18:21:50.778Z,100676.45
2019-05-09T18:24:13.703Z,100677.79
2019-05-09T18:26:40.774Z,100676.47
2019-05-09T18:29:07.846Z,100670.34
2019-05-09T18:31:48.281Z,100672.06
2019-05-09T18:34:15.538Z,100669.67
2019-05-09T18:36:42.635Z,100678.45
2019-05-09T18:39:09.706Z,100665.55
2019-05-09T18:41:37.979Z,100664.86
2019-05-09T18:44:07.345Z,100669.17
2019-05-09T18:46:34.106Z,100669.38
2019-05-09T18:49:01.190Z,100678.53
2019-05-09T18:51:28.812Z,100672.72
2019-05-09T18:53:56.055Z,100671.59
2019-05-09T18:56:23.147Z,100667.90
2019-05-09T18:58:50.228Z,100665.05
2019-05-09T19:01:17.502Z,100667.87
2019-05-09T19:03:44.625Z,100661.94
2019-05-09T19:06:11.706Z,100654.56
2019-05-09T19:08:40.458Z,100656.90
2019-05-09T19:11:09.348Z,100666.19
2019-05-09T19:13:36.461Z,100660.06
2019-05-09T19:16:27.017Z,100653.94
2019-05-09T19:19:08.700Z,100660.37
2019-05-09T19:21:42.138Z,100665.98
2019-05-09T19:24:09.222Z,100657.44
2019-05-09T19:26:36.447Z,100662.47
2019-05-09T19:29:08.043Z,100655.67
2019-05-09T19:31:35.619Z,100652.31
2019-05-09T19:34:03.353Z,100658.63
2019-05-09T19:36:30.435Z,100657.41
2019-05-09T19:38:57.505Z,100653.55
2019-05-09T19:41:24.595Z,100657.56
2019-05-09T19:43:51.732Z,100655.56
2019-05-09T19:46:18.814Z,100659.19
2019-05-09T19:48:47.722Z,100656.53
2019-05-09T19:51:14.808Z,100652.16
2019-05-09T19:53:41.923Z,100646.58
2019-05-09T19:56:09.008Z,100644.04
2019-05-09T19:58:36.144Z,100642.39
2019-05-09T20:01:03.230Z,100641.67
2019-05-09T20:03:31.426Z,100639.53
2019-05-09T20:05:58.524Z,100641.03
2019-05-09T20:08:25.610Z,100638.14
2019-05-09T20:11:10.256Z,100636.87
2019-05-09T20:14:02.781Z,100635.66
2019-05-09T20:16:31.392Z,100631.30
2019-05-09T20:18:59.620Z,100631.41
2019-05-09T20:21:26.755Z,100634.98
2019-05-09T20:23:53.917Z,100627.47
2019-05-09T20:26:25.861Z,100630.65
2019-05-09T20:28:52.990Z,100628.11
2019-05-09T20:31:20.395Z,100622.41
2019-05-09T20:33:47.511Z,100630.40
2019-05-09T20:36:14.631Z,100623.41
2019-05-09T20:38:46.030Z,100625.31
2019-05-09T20:41:13.131Z,100622.27
2019-05-09T20:43:41.920Z,100619.69
2019-05-09T20:46:10.818Z,100621.88
2019-05-09T20:48:38.006Z,100614.95
2019-05-09T20:51:05.073Z,100614.23
2019-05-09T20:53:34.959Z,100619.14
2019-05-09T20:56:02.071Z,100616.99
2019-05-09T20:58:29.156Z,100618.84
2019-05-09T21:00:56.244Z,100614.52
2019-05-09T21:03:23.323Z,100610.65
2019-05-09T21:05:50.615Z,100605.28
2019-05-09T21:08:17.707Z,100603.09
2019-05-09T21:10:44.847Z,100605.35
2019-05-09T21:13:11.931Z,100602.23
2019-05-09T21:15:39.010Z,100594.40
2019-05-09T21:18:06.240Z,100594.50
2019-05-09T21:20:33.383Z,100598.14
2019-05-09T21:23:00.485Z,100594.17
2019-05-09T21:25:27.623Z,100596.86
2019-05-09T21:27:54.714Z,100592.13
2019-05-09T21:30:22.221Z,100588.72
2019-05-09T21:32:49.323Z,100581.74
2019-05-09T21:35:16.401Z,100578.77
2019-05-09T21:37:43.502Z,100578.77
2019-05-09T21:40:11.586Z,100583.17
2019-05-09T21:42:38.664Z,100573.05
2019-05-09T21:45:06.284Z,100573.97
2019-05-09T21:47:33.393Z,100570.46
2019-05-09T21:50:00.596Z,100574.47
2019-05-09T21:52:27.672Z,100571.89
2019-05-09T21:54:55.369Z,100568.84
2019-05-09T21:57:22.456Z,100569.80
2019-05-09T21:59:49.531Z,100568.95
2019-05-09T22:02:17.039Z,100576.53
2019-05-09T22:04:44.242Z,100571.33
2019-05-09T22:07:11.326Z,100564.72
2019-05-09T22:09:38.405Z,100566.87
2019-05-09T22:12:05.734Z,100571.30
2019-05-09T22:14:32.814Z,100562.53
2019-05-09T22:17:04.877Z,100562.53
2019-05-09T22:19:31.981Z,100559.02
2019-05-09T22:21:59.064Z,100557.73
2019-05-09T22:24:26.135Z,100557.80
2019-05-09T22:26:53.211Z,100554.70
2019-05-09T22:29:20.296Z,100552.97
2019-05-09T22:31:47.425Z,100560.95
2019-05-09T22:34:14.486Z,100554.44
2019-05-09T22:36:41.559Z,100558.00
2019-05-09T22:39:10.782Z,100555.42
2019-05-09T22:41:39.677Z,100553.23
2019-05-09T22:44:06.752Z,100546.73
2019-05-09T22:46:33.838Z,100546.36
2019-05-09T22:49:00.919Z,100543.36
2019-05-09T22:51:28.007Z,100544.77
2019-05-09T22:53:55.083Z,100545.30
2019-05-09T22:56:22.290Z,100541.83
2019-05-09T22:58:49.378Z,100534.92
2019-05-09T23:01:16.494Z,100535.48
2019-05-09T23:03:43.651Z,100533.50
2019-05-09T23:06:10.683Z,100532.33
2019-05-09T23:08:37.761Z,100528.03
2019-05-09T23:11:04.896Z,100521.98
2019-05-09T23:13:50.886Z,100522.08
2019-05-09T23:16:18.103Z,100527.06
2019-05-09T23:18:45.194Z,100517.81
2019-05-09T23:21:12.279Z,100515.53
2019-05-09T23:23:51.442Z,100522.53
2019-05-09T23:26:20.238Z,100512.98
2019-05-09T23:28:47.351Z,100512.16
2019-05-09T23:31:18.724Z,100510.41
2019-05-09T23:33:45.799Z,100508.65
2019-05-09T23:36:12.891Z,100515.33
2019-05-09T23:38:58.153Z,100507.42
2019-05-09T23:41:25.230Z,100505.30
2019-05-09T23:43:53.020Z,100498.27
2019-05-09T23:46:20.235Z,100500.91
2019-05-09T23:48:47.330Z,100500.51
2019-05-09T23:51:16.217Z,100499.16
2019-05-09T23:53:52.066Z,100500.42
2019-05-09T23:56:38.803Z,100496.84
2019-05-09T23:59:24.439Z,100494.67
